High Point, NC

6:38 PM EST on February 08, 2016 (GMT -0500)
Winter Garden | | Change Station
CLOSE
Current Station
Personal Weather Station
Location: High Point, NC
Elevation: 850 ft
Nearby Weather Stations

Elev 850 ft 36.01 °N, 80.06 °W | Updated 8 seconds ago

Mostly Cloudy
Mostly Cloudy
36.3 °F
Feels Like 36 °F
N
0.0
Wind Variable Wind from North
Gusts 0.0 mph

Today
High -- | Low -- °F
--% Chance of Precip.
Yesterday
High -- | Low -- °F
Precip. -- in
Pressure 29.66 in
Visibility 10.0 miles
Clouds Scattered Clouds 4000 ft
Scattered Clouds 6500 ft
Mostly Cloudy 25000 ft
Windchill 36 °F
Dew Point 31 °F
Humidity 81%
Rainfall 0.00 in
Snow Depth Not available.
7:15 AM 5:54 PM
New Moon, 0% visible
METAR KGSO 082254Z 00000KT 10SM SCT040 SCT065 BKN250 05/01 A2964 RMK AO2 SLP042 RAE02 P0000 T00500006
Pressure 29.66 in
Visibility 10.0 miles
Clouds Scattered Clouds 4000 ft
Scattered Clouds 6500 ft
Mostly Cloudy 25000 ft
Windchill 36 °F
Dew Point 31 °F
Humidity 81%
Rainfall 0.00 in
Snow Depth Not available.
7:15 AM 5:54 PM
New Moon, 0% visible
METAR KGSO 082254Z 00000KT 10SM SCT040 SCT065 BKN250 05/01 A2964 RMK AO2 SLP042 RAE02 P0000 T00500006

10-Day Weather Forecast

Almanac

Astronomy

Feb. 08, 2016 Rise Set
Actual Time
Civil Twilight
Nautical Twilight
Astronomical Twilight
Moon
Length of Visible Light
Length of Day
Tomorrow will be .
, % of the Moon is Illuminated

Today's Extremes

State Highs State Lows

Community

WunderPhotos

Upload Photos

1,891,525 photos uploaded!

WunderBlog® & News

Nearby

Air Quality

  Air Quality AQ Index Pollutant
Not available.

Snow Depth

Station Depth Elevation

Earthquake Activity

City Distance Mag. Time & Date
Minimum magnitude displayed is 2.5.

Coastal Water Temperatures

Place Temperature

Stations

Nearby Weather Stations

Station Location Temp. Windchill Dew Point Humidity Wind Precip. Elev Updated Type
                   

Watches & Warnings

There are currently no watches in effect.